Time;durP1;ratioP1;P1;durP2;ratioP2;P2;SDS_P1;SDS_P2;PMS_P1;PMS_P2;Temp;Humidity;BMP_temperature;BMP_pressure;BME280_temperature;BME280_humidity;BME280_pressure;Samples;Min_cycle;Max_cycle;Signal;HPM_P1;HPM_P2
2023/05/05 00:01:25;;;;;;;10.32;8.43;;;;;;;14.16;64.54;101447.66;6072683;23;20462;-81
2023/05/05 00:03:52;;;;;;;13.98;9.05;;;;;;;14.09;64.90;101431.91;6076997;23;20442;-81
2023/05/05 00:06:19;;;;;;;15.82;9.18;;;;;;;14.05;65.16;101442.00;6075189;23;20090;-81
2023/05/05 00:08:45;;;;;;;11.10;8.45;;;;;;;14.04;65.49;101440.53;6077543;23;20030;-81
2023/05/05 00:11:12;;;;;;;9.35;8.43;;;;;;;14.01;65.61;101439.47;6076406;23;20025;-81
2023/05/05 00:13:39;;;;;;;10.80;8.00;;;;;;;13.98;66.02;101447.69;6051255;23;20052;-82
2023/05/05 00:16:05;;;;;;;12.20;7.68;;;;;;;13.95;65.77;101449.31;6073326;23;20599;-81
2023/05/05 00:18:32;;;;;;;9.77;8.35;;;;;;;13.94;65.88;101439.06;6074075;23;20023;-81
2023/05/05 00:20:59;;;;;;;14.50;8.25;;;;;;;13.93;65.80;101442.91;6074570;23;20023;-81
2023/05/05 00:23:25;;;;;;;9.45;8.05;;;;;;;13.93;64.98;101432.94;6078888;23;20412;-81
2023/05/05 00:25:52;;;;;;;8.90;8.00;;;;;;;13.95;65.15;101429.84;6099948;23;20022;-81
2023/05/05 00:28:18;;;;;;;9.25;8.40;;;;;;;13.97;64.76;101432.81;6100145;23;20094;-82
2023/05/05 00:30:45;;;;;;;9.20;7.63;;;;;;;13.95;65.38;101430.56;6097907;23;20103;-81
2023/05/05 00:33:12;;;;;;;8.60;7.70;;;;;;;13.94;65.43;101431.75;6074157;23;20053;-82
2023/05/05 00:35:38;;;;;;;8.88;8.05;;;;;;;13.92;65.80;101417.34;6099716;23;20018;-81
2023/05/05 00:38:05;;;;;;;10.98;8.32;;;;;;;13.92;65.30;101417.34;6100276;23;20019;-81
2023/05/05 00:40:32;;;;;;;9.13;7.95;;;;;;;13.92;65.29;101422.69;6100025;23;20022;-81
2023/05/05 00:42:59;;;;;;;9.55;8.05;;;;;;;13.91;65.98;101438.00;6073213;23;20019;-81
2023/05/05 00:45:25;;;;;;;10.90;7.47;;;;;;;13.88;66.39;101441.56;6100169;23;20015;-81
2023/05/05 00:47:53;;;;;;;9.20;7.63;;;;;;;13.82;66.96;101445.28;6074347;23;20019;-81
2023/05/05 00:50:25;;;;;;;9.23;7.05;;;;;;;13.81;66.87;101457.91;6050205;23;20417;-81
2023/05/05 00:52:54;;;;;;;8.40;7.50;;;;;;;13.79;67.05;101456.88;6050088;23;20019;-81
2023/05/05 00:55:21;;;;;;;10.45;7.68;;;;;;;13.76;67.58;101452.41;6079920;23;20011;-81
2023/05/05 00:57:48;;;;;;;11.18;7.75;;;;;;;13.77;66.97;101453.88;6073569;23;20023;-81
2023/05/05 01:00:15;;;;;;;13.75;7.60;;;;;;;13.76;66.96;101447.78;6074209;23;20015;-81
2023/05/05 01:02:42;;;;;;;8.65;7.68;;;;;;;13.77;66.52;101435.91;6044890;23;20114;-81
2023/05/05 01:05:12;;;;;;;7.85;7.25;;;;;;;13.77;66.51;101437.84;6070749;23;20026;-81
2023/05/05 01:08:01;;;;;;;8.88;7.45;;;;;;;13.76;66.60;101433.66;6070134;23;20118;-81
2023/05/05 01:10:43;;;;;;;8.98;7.45;;;;;;;13.76;66.46;101434.41;6047087;23;20030;-81
2023/05/05 01:13:31;;;;;;;9.10;7.93;;;;;;;13.75;66.38;101434.84;6045904;23;20522;-81
2023/05/05 01:16:13;;;;;;;8.57;7.82;;;;;;;13.74;66.75;101433.38;6046274;23;20019;-81
2023/05/05 01:18:42;;;;;;;9.55;8.65;;;;;;;13.75;67.80;101442.88;6072048;23;20086;-81
2023/05/05 01:21:22;;;;;;;12.75;9.20;;;;;;;13.78;68.24;101442.75;6072016;23;20023;-81
2023/05/05 01:24:16;;;;;;;12.57;8.32;;;;;;;13.82;68.76;101443.34;6072258;23;20015;-81
2023/05/05 01:27:04;;;;;;;13.18;9.50;;;;;;;13.87;69.58;101448.13;6070255;23;20450;-82
2023/05/05 01:29:34;;;;;;;9.88;8.98;;;;;;;13.92;71.21;101444.09;6078286;23;20425;-82
2023/05/05 01:32:09;;;;;;;10.48;9.30;;;;;;;13.97;71.50;101454.97;6071951;23;20019;-82
2023/05/05 01:34:42;;;;;;;15.07;9.35;;;;;;;13.99;71.97;101457.91;6071925;23;20025;-81
2023/05/05 01:37:17;;;;;;;11.68;9.23;;;;;;;14.01;72.35;101457.47;6069905;23;20031;-82
2023/05/05 01:39:50;;;;;;;10.57;9.48;;;;;;;14.03;72.98;101460.44;6072093;23;20410;-82
2023/05/05 01:42:18;;;;;;;11.32;9.02;;;;;;;14.04;73.60;101456.59;6071778;23;20015;-81
2023/05/05 01:44:47;;;;;;;13.18;9.00;;;;;;;14.06;73.75;101448.84;6070297;23;20030;-82
2023/05/05 01:47:17;;;;;;;13.02;9.25;;;;;;;14.08;73.70;101453.75;6070142;23;20038;-81
2023/05/05 01:49:46;;;;;;;11.57;9.68;;;;;;;14.10;74.42;101464.78;6069663;23;20024;-81
2023/05/05 01:52:14;;;;;;;10.40;9.40;;;;;;;14.11;74.93;101463.59;6071710;23;20015;-81
2023/05/05 01:54:44;;;;;;;10.48;9.38;;;;;;;14.13;75.72;101471.91;6069832;23;20424;-81
2023/05/05 01:57:11;;;;;;;9.77;8.88;;;;;;;14.17;75.79;101491.25;6069372;23;20565;-81
2023/05/05 01:59:38;;;;;;;12.50;9.23;;;;;;;14.19;76.23;101491.56;6072862;23;20028;-82
2023/05/05 02:02:08;;;;;;;9.52;8.63;;;;;;;14.20;76.45;101499.16;6083022;23;20043;-82
2023/05/05 02:04:39;;;;;;;9.55;8.60;;;;;;;14.22;76.73;101494.09;6074812;23;20019;-82
2023/05/05 02:07:07;;;;;;;13.00;9.33;;;;;;;14.23;76.89;101486.81;6074877;23;20047;-82
2023/05/05 02:09:35;;;;;;;9.02;8.15;;;;;;;14.25;77.11;101468.34;6074728;23;20678;-82
2023/05/05 02:12:04;;;;;;;8.88;8.02;;;;;;;14.27;76.94;101445.28;6100289;23;20019;-82
2023/05/05 02:14:31;;;;;;;9.38;7.35;;;;;;;14.30;77.16;101444.41;6101599;23;20449;-81
2023/05/05 02:17:00;;;;;;;9.10;8.20;;;;;;;14.32;77.43;101433.97;6101563;23;20026;-81
2023/05/05 02:19:30;;;;;;;8.02;7.30;;;;;;;14.34;77.78;101428.19;6100981;23;20041;-84
2023/05/05 02:21:57;;;;;;;8.88;8.02;;;;;;;14.33;81.00;101440.09;6075215;23;20023;-84
2023/05/05 02:24:25;;;;;;;11.32;8.02;;;;;;;14.27;82.75;101461.34;6100342;23;20069;-82
2023/05/05 02:26:55;;;;;;;9.18;7.72;;;;;;;14.19;84.42;101468.19;6100390;23;20015;-81
2023/05/05 02:29:33;;;;;;;8.93;6.82;;;;;;;14.12;84.99;101457.03;6075350;23;20019;-81
2023/05/05 02:32:13;;;;;;;9.13;7.60;;;;;;;14.07;85.72;101461.06;6074791;23;20023;-81
2023/05/05 02:34:41;;;;;;;9.45;6.85;;;;;;;14.03;87.05;101455.84;6074702;23;20027;-81
2023/05/05 02:37:18;;;;;;;9.32;6.95;;;;;;;14.02;87.55;101456.28;6075516;23;20063;-81
2023/05/05 02:40:00;;;;;;;7.65;7.05;;;;;;;13.99;87.78;101457.19;6099978;23;20075;-81
2023/05/05 02:42:35;;;;;;;8.30;7.50;;;;;;;13.95;88.67;101460.03;6100480;23;20457;-80
2023/05/05 02:45:09;;;;;;;7.13;6.53;;;;;;;13.89;88.52;101450.34;6074879;23;20023;-80
2023/05/05 02:47:39;;;;;;;7.63;6.93;;;;;;;13.82;88.83;101448.69;6075074;23;20412;-81
2023/05/05 02:50:07;;;;;;;7.93;6.80;;;;;;;13.75;88.79;101459.69;6100398;23;20055;-80
2023/05/05 02:52:36;;;;;;;8.13;6.55;;;;;;;13.69;89.17;101453.44;6075299;23;20018;-80
2023/05/05 02:55:04;;;;;;;7.00;6.32;;;;;;;13.62;89.29;101449.09;6099857;23;20015;-81
2023/05/05 02:58:12;;;;;;;7.53;6.60;;;;;;;13.56;88.99;101447.47;6074194;23;20051;-80
2023/05/05 03:00:45;;;;;;;7.50;6.80;;;;;;;13.50;89.43;101444.63;6074540;23;20101;-80
2023/05/05 03:03:20;;;;;;;7.25;6.63;;;;;;;13.46;89.55;101445.94;6050526;23;20027;-80
2023/05/05 03:06:12;;;;;;;6.95;6.28;;;;;;;13.38;89.74;101450.09;6050582;23;20025;-80
2023/05/05 03:09:00;;;;;;;;;;;;;;;13.35;88.11;101457.81;6074391;23;20023;-80
2023/05/05 03:11:43;;;;;;;6.80;6.30;;;;;;;13.28;89.96;101463.41;6050979;23;19932;-80
2023/05/05 03:14:16;;;;;;;6.93;6.28;;;;;;;13.24;90.52;101452.13;6050574;23;20030;-80
2023/05/05 03:16:45;;;;;;;6.85;6.15;;;;;;;13.20;91.19;101462.19;6050662;23;20449;-80
2023/05/05 03:19:14;;;;;;;6.60;6.00;;;;;;;13.15;91.23;101467.38;6050554;23;20095;-81
2023/05/05 03:21:41;;;;;;;6.07;5.65;;;;;;;13.11;91.37;101469.41;6074238;23;20027;-80
2023/05/05 03:24:18;;;;;;;7.47;6.07;;;;;;;13.08;90.85;101472.97;6074099;23;20021;-80
2023/05/05 03:26:53;;;;;;;5.85;5.35;;;;;;;13.03;91.22;101475.03;6074305;23;20049;-80
2023/05/05 03:29:24;;;;;;;5.78;5.28;;;;;;;13.01;90.86;101477.38;6074815;23;20047;-80
2023/05/05 03:31:51;;;;;;;6.40;5.63;;;;;;;12.97;91.14;101486.72;6074109;23;20102;-80
2023/05/05 03:34:18;;;;;;;6.13;5.72;;;;;;;12.92;91.51;101493.38;6050516;23;20105;-80
2023/05/05 03:36:46;;;;;;;7.10;6.40;;;;;;;12.89;91.40;101485.47;6074072;23;20110;-80
2023/05/05 03:39:14;;;;;;;6.47;5.30;;;;;;;12.88;91.56;101474.03;6050050;23;20461;-80
2023/05/05 03:41:41;;;;;;;6.88;6.28;;;;;;;12.85;91.02;101469.56;6074320;23;20055;-80
2023/05/05 03:44:09;;;;;;;7.07;6.43;;;;;;;12.82;91.92;101457.09;6074119;23;20110;-80
2023/05/05 03:46:36;;;;;;;6.90;6.20;;;;;;;12.79;91.76;101475.94;6074180;23;20026;-80
2023/05/05 03:49:05;;;;;;;6.82;6.13;;;;;;;12.75;92.52;101478.75;6074156;23;20075;-80
2023/05/05 03:51:32;;;;;;;6.57;5.95;;;;;;;12.75;92.37;101483.34;6073936;23;20027;-80
2023/05/05 03:53:59;;;;;;;6.90;6.20;;;;;;;12.71;92.50;101486.13;6074289;23;20027;-80
2023/05/05 03:56:25;;;;;;;6.82;6.30;;;;;;;12.67;93.29;101502.28;6074571;23;20469;-80
2023/05/05 03:58:52;;;;;;;9.48;6.78;;;;;;;12.65;93.11;101509.25;6100258;23;20022;-80
2023/05/05 04:01:19;;;;;;;6.75;6.18;;;;;;;12.63;93.24;101512.34;6073930;23;20023;-81
2023/05/05 04:03:46;;;;;;;9.48;6.85;;;;;;;12.62;93.22;101502.09;6050123;23;20018;-80
2023/05/05 04:06:12;;;;;;;7.30;6.57;;;;;;;12.64;93.41;101513.84;6072975;23;20023;-80
2023/05/05 04:08:40;;;;;;;8.98;6.97;;;;;;;12.65;93.81;101523.34;6099545;23;20026;-80
2023/05/05 04:11:06;;;;;;;11.13;6.93;;;;;;;12.67;93.46;101526.31;6099554;23;20019;-80
2023/05/05 04:13:33;;;;;;;7.75;6.95;;;;;;;12.65;93.80;101530.59;6099580;23;20019;-79
2023/05/05 04:16:01;;;;;;;8.95;6.93;;;;;;;12.65;94.15;101535.94;6073745;23;20058;-78
2023/05/05 04:18:28;;;;;;;7.90;7.13;;;;;;;12.65;93.96;101538.63;6073930;23;20098;-79
2023/05/05 04:20:55;;;;;;;8.52;7.35;;;;;;;12.64;94.41;101545.16;6049969;23;20036;-79
2023/05/05 04:23:22;;;;;;;8.80;7.32;;;;;;;12.60;94.19;101544.50;6074345;23;20848;-79
2023/05/05 04:25:49;;;;;;;7.90;6.97;;;;;;;12.59;94.09;101548.38;6050236;23;20461;-79
2023/05/05 04:28:16;;;;;;;10.35;6.47;;;;;;;12.58;94.00;101550.28;6050203;23;20377;-79
2023/05/05 04:30:46;;;;;;;7.20;6.47;;;;;;;12.58;94.67;101550.28;6074480;23;20027;-79
2023/05/05 04:33:12;;;;;;;10.77;7.38;;;;;;;12.60;94.32;101555.94;6073742;23;20030;-79
2023/05/05 04:35:39;;;;;;;6.85;6.32;;;;;;;12.63;94.42;101562.34;6049560;23;20406;-79
2023/05/05 04:38:06;;;;;;;7.57;6.75;;;;;;;12.64;94.53;101564.59;6099685;23;20357;-78
2023/05/05 04:40:32;;;;;;;8.73;6.93;;;;;;;12.67;94.32;101569.06;6073484;23;20027;-78
2023/05/05 04:43:00;;;;;;;9.75;7.15;;;;;;;12.69;94.32;101565.97;6073574;23;20492;-78
2023/05/05 04:45:27;;;;;;;7.30;6.57;;;;;;;12.67;94.68;101566.41;6098392;23;20023;-79
2023/05/05 04:47:54;;;;;;;7.60;6.47;;;;;;;12.66;94.50;101558.81;6050260;23;20089;-79
2023/05/05 04:50:21;;;;;;;10.63;6.72;;;;;;;12.66;94.32;101567.56;6073443;23;20536;-78
2023/05/05 04:52:48;;;;;;;7.38;6.60;;;;;;;12.71;94.62;101574.28;6049824;23;20115;-79
2023/05/05 04:55:18;;;;;;;7.30;5.97;;;;;;;12.78;94.24;101578.66;6073498;23;20026;-79
2023/05/05 04:57:44;;;;;;;8.63;6.65;;;;;;;12.83;93.85;101578.81;6073927;23;20018;-79
2023/05/05 05:00:11;;;;;;;9.95;6.82;;;;;;;13.21;93.92;101570.63;6049828;23;20031;-79
2023/05/05 05:02:38;;;;;;;9.70;6.63;;;;;;;15.10;87.79;101584.56;6099395;23;20015;-79
2023/05/05 05:05:05;;;;;;;7.68;6.97;;;;;;;15.72;81.20;101578.72;6099044;23;20038;-79
2023/05/05 05:07:31;;;;;;;7.00;6.18;;;;;;;15.05;82.55;101593.94;6074014;23;20018;-79
2023/05/05 05:09:58;;;;;;;7.15;6.45;;;;;;;16.24;79.28;101596.19;6049810;23;20442;-79
2023/05/05 05:12:24;;;;;;;6.65;6.03;;;;;;;18.07;71.30;101589.69;6074017;23;20022;-79
2023/05/05 05:14:51;;;;;;;9.18;6.45;;;;;;;19.56;66.08;101590.94;6073796;23;20029;-79
2023/05/05 05:17:19;;;;;;;6.82;6.13;;;;;;;20.50;61.08;101590.63;6073767;23;20019;-80
2023/05/05 05:19:45;;;;;;;6.55;5.90;;;;;;;21.29;58.52;101588.75;6098888;23;20406;-79
2023/05/05 05:22:12;;;;;;;12.20;6.50;;;;;;;21.56;56.53;101596.13;6049824;23;20026;-79
2023/05/05 05:24:41;;;;;;;9.18;6.43;;;;;;;22.15;54.41;101600.41;6073500;23;20441;-79
2023/05/05 05:27:10;;;;;;;7.03;6.32;;;;;;;22.64;52.73;101595.22;6073220;23;20030;-79
2023/05/05 05:29:40;;;;;;;9.98;6.80;;;;;;;22.99;51.23;101597.22;6073326;23;20034;-80
2023/05/05 05:32:06;;;;;;;10.65;7.45;;;;;;;23.41;50.24;101598.56;6099327;23;20070;-80
2023/05/05 05:34:34;;;;;;;11.50;6.95;;;;;;;23.70;49.13;101601.75;6048941;23;20022;-80
2023/05/05 05:37:01;;;;;;;8.50;7.50;;;;;;;23.79;48.35;101599.44;6049572;23;20023;-80
2023/05/05 05:39:28;;;;;;;13.13;7.57;;;;;;;23.81;48.94;101607.81;6099747;23;20094;-80
2023/05/05 05:41:54;;;;;;;9.90;8.02;;;;;;;23.93;48.28;101605.72;6099598;23;20457;-79
2023/05/05 05:44:21;;;;;;;9.30;7.32;;;;;;;23.71;48.61;101614.84;6073707;23;20034;-80
2023/05/05 05:46:48;;;;;;;10.90;8.10;;;;;;;23.92;48.39;101618.56;6099148;23;20558;-80
2023/05/05 05:49:16;;;;;;;8.90;7.85;;;;;;;23.73;48.33;101620.50;6072777;23;20023;-79
2023/05/05 05:51:42;;;;;;;10.05;7.55;;;;;;;23.51;49.02;101621.44;6099584;23;20042;-80
2023/05/05 05:54:09;;;;;;;9.70;8.25;;;;;;;23.61;48.86;101624.56;6074795;23;20019;-80
2023/05/05 05:56:35;;;;;;;9.93;8.93;;;;;;;23.55;49.63;101623.91;6074752;23;20429;-80
2023/05/05 05:59:03;;;;;;;14.40;8.55;;;;;;;23.41;50.74;101616.84;6074840;23;20027;-80
2023/05/05 06:01:30;;;;;;;10.70;9.10;;;;;;;23.26;50.16;101617.97;6074228;23;20112;-79
2023/05/05 06:03:57;;;;;;;10.63;9.20;;;;;;;23.05;50.05;101613.47;6099994;23;20015;-79
2023/05/05 06:06:23;;;;;;;12.00;9.00;;;;;;;22.75;51.29;101616.84;6100748;23;20015;-79
2023/05/05 06:08:50;;;;;;;12.32;9.13;;;;;;;22.40;51.95;101625.66;6074704;23;20022;-80
2023/05/05 06:11:17;;;;;;;10.70;8.98;;;;;;;21.76;53.83;101616.03;6074431;23;20032;-79
2023/05/05 06:13:43;;;;;;;17.13;9.38;;;;;;;21.58;53.96;101612.63;6050760;23;20532;-78
2023/05/05 06:16:10;;;;;;;16.92;8.98;;;;;;;21.48;54.44;101607.97;6074571;23;20900;-77
2023/05/05 06:18:42;;;;;;;9.63;8.63;;;;;;;21.13;54.93;101605.75;6073732;23;20070;-79
2023/05/05 06:21:09;;;;;;;11.82;8.07;;;;;;;20.93;55.31;101610.16;6074552;23;20372;-77
2023/05/05 06:23:35;;;;;;;8.73;7.78;;;;;;;20.65;57.26;101609.38;6100425;23;20455;-77
2023/05/05 06:26:05;;;;;;;10.55;7.57;;;;;;;20.43;57.46;101615.44;6074140;23;20477;-77
2023/05/05 06:28:31;;;;;;;10.20;7.40;;;;;;;20.28;57.54;101623.75;6100330;23;20057;-79
2023/05/05 06:30:58;;;;;;;8.75;7.60;;;;;;;20.06;58.56;101622.88;6099662;23;20412;-78
2023/05/05 06:33:24;;;;;;;9.45;8.27;;;;;;;19.98;59.04;101628.03;6074686;23;20015;-78
2023/05/05 06:35:52;;;;;;;11.95;8.30;;;;;;;19.89;58.65;101625.53;6100311;23;20436;-79
2023/05/05 06:38:18;;;;;;;9.88;7.53;;;;;;;19.77;59.14;101626.66;6100263;23;20023;-78
2023/05/05 06:40:48;;;;;;;8.45;7.13;;;;;;;19.74;58.96;101627.63;6100303;23;20070;-76
2023/05/05 06:43:16;;;;;;;11.15;7.28;;;;;;;19.62;59.22;101622.16;6100304;23;20011;-76
2023/05/05 06:45:49;;;;;;;7.85;7.15;;;;;;;19.46;59.65;101635.50;6073927;23;20019;-78
2023/05/05 06:48:17;;;;;;;10.40;7.75;;;;;;;19.41;60.46;101636.22;6100284;23;20026;-79
2023/05/05 06:50:43;;;;;;;11.18;7.50;;;;;;;19.45;60.23;101637.47;6100124;23;20420;-79
2023/05/05 06:53:10;;;;;;;8.77;7.55;;;;;;;19.44;59.51;101636.00;6100110;23;20023;-79
2023/05/05 06:55:37;;;;;;;7.68;7.00;;;;;;;19.44;59.65;101644.09;6099874;23;20102;-79
2023/05/05 06:58:03;;;;;;;10.65;7.13;;;;;;;19.30;60.37;101645.69;6100294;23;20445;-78
2023/05/05 07:00:30;;;;;;;9.20;6.80;;;;;;;19.36;60.36;101637.66;6073762;23;20019;-78
2023/05/05 07:02:57;;;;;;;13.48;6.85;;;;;;;19.18;60.17;101644.13;6099521;23;20011;-78
2023/05/05 07:05:23;;;;;;;12.90;6.53;;;;;;;19.19;60.84;101655.66;6073981;23;20520;-79
2023/05/05 07:07:51;;;;;;;10.52;6.50;;;;;;;19.08;60.68;101650.16;6100028;23;20026;-78
2023/05/05 07:10:18;;;;;;;7.93;6.15;;;;;;;19.25;61.29;101649.09;6099969;23;20019;-80
2023/05/05 07:12:45;;;;;;;9.25;6.43;;;;;;;19.53;59.69;101654.00;6100150;23;20442;-80
2023/05/05 07:15:12;;;;;;;10.13;5.88;;;;;;;19.61;59.59;101655.03;6073578;23;20449;-80
2023/05/05 07:17:53;;;;;;;8.50;6.13;;;;;;;19.49;59.78;101646.09;6100662;23;20026;-80
2023/05/05 07:20:20;;;;;;;6.55;5.95;;;;;;;19.61;59.94;101647.66;6100232;23;20019;-80
2023/05/05 07:22:47;;;;;;;8.50;6.00;;;;;;;19.60;59.14;101646.19;6074196;23;20046;-80
2023/05/05 07:25:13;;;;;;;6.85;6.18;;;;;;;19.62;60.46;101651.84;6100334;23;20021;-80
2023/05/05 07:27:40;;;;;;;9.45;5.65;;;;;;;19.40;60.10;101648.22;6101140;23;20033;-80
2023/05/05 07:30:07;;;;;;;7.57;5.57;;;;;;;19.29;60.08;101656.97;6100067;23;20023;-80
2023/05/05 07:32:39;;;;;;;10.02;4.60;;;;;;;19.72;58.74;101657.81;6075217;23;20087;-80
2023/05/05 07:35:06;;;;;;;10.10;4.70;;;;;;;19.90;58.52;101664.81;6071984;23;20096;-80
2023/05/05 07:37:33;;;;;;;9.65;4.70;;;;;;;20.09;57.71;101659.75;6072398;23;20038;-80
2023/05/05 07:39:59;;;;;;;4.65;4.00;;;;;;;20.22;57.50;101662.78;6098204;23;20019;-76
2023/05/05 07:42:26;;;;;;;6.57;4.20;;;;;;;20.20;56.68;101657.84;6099797;23;20025;-78
2023/05/05 07:44:52;;;;;;;6.82;4.40;;;;;;;20.21;56.70;101658.59;6100427;23;20468;-78
2023/05/05 07:47:19;;;;;;;5.40;3.55;;;;;;;20.18;56.29;101657.59;6100508;23;20034;-77
2023/05/05 07:49:46;;;;;;;4.03;3.63;;;;;;;20.24;56.29;101658.38;6075167;23;20023;-77
2023/05/05 07:52:12;;;;;;;6.60;3.42;;;;;;;20.16;56.46;101668.16;6074641;23;20465;-77
2023/05/05 07:54:40;;;;;;;4.68;3.67;;;;;;;20.20;55.24;101668.66;6075196;23;20026;-81
2023/05/05 07:57:07;;;;;;;7.72;3.30;;;;;;;20.24;55.33;101660.34;6050956;23;20027;-82
2023/05/05 07:59:34;;;;;;;3.65;3.22;;;;;;;20.57;55.32;101660.50;6050920;23;20449;-80
2023/05/05 08:02:00;;;;;;;5.07;3.70;;;;;;;20.78;54.27;101655.66;6069608;23;20019;-79
2023/05/05 08:04:27;;;;;;;5.38;3.97;;;;;;;20.88;54.99;101656.88;6069180;23;20023;-80
2023/05/05 08:06:53;;;;;;;7.55;4.90;;;;;;;20.93;54.49;101663.53;6068542;23;20454;-76
2023/05/05 08:09:20;;;;;;;9.27;4.20;;;;;;;21.15;55.59;101660.88;6070287;23;20141;-77
2023/05/05 08:11:46;;;;;;;6.03;4.28;;;;;;;21.42;52.94;101664.09;6070362;23;20012;-77
2023/05/05 08:14:13;;;;;;;38.67;27.52;;;;;;;21.59;52.45;101672.97;6069032;23;20031;-77
2023/05/05 08:16:40;;;;;;;4.32;3.40;;;;;;;21.49;53.92;101667.06;6069696;23;20024;-76
2023/05/05 08:19:06;;;;;;;3.65;2.85;;;;;;;21.80;52.24;101673.41;6070831;23;20015;-77
2023/05/05 08:21:50;;;;;;;5.00;3.63;;;;;;;21.71;51.16;101673.69;6072133;23;20461;-77
2023/05/05 08:24:17;;;;;;;8.00;3.47;;;;;;;21.44;51.54;101672.47;6071557;23;20026;-78
2023/05/05 08:26:43;;;;;;;4.57;3.15;;;;;;;21.76;52.47;101662.09;6070195;23;20029;-77
2023/05/05 08:29:10;;;;;;;8.80;3.13;;;;;;;21.88;52.55;101668.97;6069467;23;20454;-78
2023/05/05 08:31:36;;;;;;;7.57;3.10;;;;;;;22.06;51.55;101665.75;6071983;23;20043;-77
2023/05/05 08:34:04;;;;;;;4.30;3.00;;;;;;;21.83;52.18;101658.88;6071396;23;20007;-77
2023/05/05 08:36:31;;;;;;;5.93;3.15;;;;;;;21.83;50.65;101667.75;6071935;23;20098;-78
2023/05/05 08:38:58;;;;;;;3.88;2.65;;;;;;;21.70;51.80;101669.50;6069505;23;20024;-76
2023/05/05 08:41:25;;;;;;;4.82;2.50;;;;;;;21.37;51.68;101681.81;6071679;23;20015;-77
2023/05/05 08:43:52;;;;;;;2.40;2.20;;;;;;;21.28;52.10;101679.34;6070344;23;20011;-80
2023/05/05 08:46:18;;;;;;;3.97;2.30;;;;;;;21.07;51.94;101680.78;6070016;23;20518;-78
2023/05/05 08:48:47;;;;;;;4.65;2.45;;;;;;;20.85;52.02;101682.22;6071785;23;20086;-77
2023/05/05 08:51:18;;;;;;;1.95;1.80;;;;;;;20.75;53.29;101685.66;6045500;23;20085;-76
2023/05/05 08:53:54;;;;;;;6.00;2.90;;;;;;;21.00;53.76;101686.69;6071633;23;20023;-77
2023/05/05 08:56:21;;;;;;;4.32;2.60;;;;;;;21.06;52.44;101676.59;6069107;23;20116;-76
2023/05/05 08:58:49;;;;;;;7.00;3.90;;;;;;;21.16;53.92;101686.72;6071776;23;20022;-76
2023/05/05 09:01:17;;;;;;;6.55;2.70;;;;;;;21.00;53.32;101690.13;6072591;23;20397;-76
2023/05/05 09:03:44;;;;;;;3.08;2.42;;;;;;;21.01;53.44;101694.31;6069827;23;20019;-77
2023/05/05 09:06:11;;;;;;;2.30;2.10;;;;;;;21.02;54.15;101684.22;6069557;23;20415;-78
2023/05/05 09:08:39;;;;;;;3.22;2.67;;;;;;;20.95;53.53;101688.88;6070152;23;20051;-80
2023/05/05 09:11:05;;;;;;;3.15;2.83;;;;;;;20.85;53.62;101686.88;6068626;23;20047;-77
2023/05/05 09:13:32;;;;;;;5.63;2.90;;;;;;;20.80;53.79;101690.31;6071550;23;20067;-77
2023/05/05 09:15:59;;;;;;;2.40;2.20;;;;;;;20.79;53.10;101681.47;6069506;23;20043;-76
2023/05/05 09:18:26;;;;;;;3.10;2.42;;;;;;;20.76;54.87;101689.81;6071503;23;20019;-76
2023/05/05 09:20:52;;;;;;;4.82;2.72;;;;;;;20.76;54.17;101684.41;6069933;23;20019;-76
2023/05/05 09:23:20;;;;;;;4.90;2.80;;;;;;;20.81;53.76;101675.56;6070978;23;20015;-75
2023/05/05 09:26:09;;;;;;;3.22;2.53;;;;;;;20.85;53.59;101679.50;6069361;23;20042;-76
2023/05/05 09:28:36;;;;;;;5.75;2.53;;;;;;;20.92;53.88;101678.28;6071090;23;20086;-76
2023/05/05 09:31:14;;;;;;;6.85;3.10;;;;;;;20.92;53.93;101692.56;6070623;23;20425;-76
2023/05/05 09:33:42;;;;;;;5.43;3.50;;;;;;;20.89;54.48;101690.09;6072724;23;20019;-75
2023/05/05 09:36:08;;;;;;;4.38;3.20;;;;;;;20.82;54.59;101682.44;6071803;23;20031;-76
2023/05/05 09:38:35;;;;;;;3.33;3.00;;;;;;;20.77;54.46;101686.63;6072688;23;20019;-76
2023/05/05 09:41:02;;;;;;;3.45;3.15;;;;;;;20.62;55.40;101686.09;6071420;23;20047;-76
2023/05/05 09:43:28;;;;;;;6.07;3.50;;;;;;;20.41;55.00;101682.06;6070817;23;20023;-75
2023/05/05 09:46:08;;;;;;;4.05;3.35;;;;;;;20.37;55.89;101676.13;6071083;23;20071;-76
2023/05/05 09:48:35;;;;;;;6.95;4.88;;;;;;;20.25;57.14;101678.78;6072464;23;20015;-79
2023/05/05 09:51:01;;;;;;;14.02;5.97;;;;;;;20.15;57.48;101674.78;6046701;23;20102;-79
2023/05/05 09:53:37;;;;;;;8.43;5.63;;;;;;;20.05;58.07;101673.50;6070886;23;20074;-78
2023/05/05 09:56:04;;;;;;;13.40;6.18;;;;;;;20.09;58.50;101668.59;6071545;23;20023;-77
2023/05/05 09:58:31;;;;;;;13.60;6.10;;;;;;;20.22;58.57;101671.63;6071005;23;20022;-77
2023/05/05 10:00:58;;;;;;;11.95;5.20;;;;;;;20.16;57.26;101672.81;6072372;23;20049;-77
2023/05/05 10:03:24;;;;;;;7.07;5.10;;;;;;;20.06;58.00;101668.81;6070533;23;20024;-78
2023/05/05 10:05:54;;;;;;;19.77;5.00;;;;;;;20.10;57.23;101672.78;6071033;23;20023;-76
2023/05/05 10:08:26;;;;;;;36.78;7.13;;;;;;;20.02;57.83;101669.06;6070578;23;20118;-77
2023/05/05 10:11:05;;;;;;;15.85;5.00;;;;;;;20.00;57.22;101674.19;6072711;23;20058;-78
2023/05/05 10:13:36;;;;;;;7.35;4.95;;;;;;;19.82;57.90;101688.84;6072776;23;20020;-77
2023/05/05 10:16:03;;;;;;;2.13;2.00;;;;;;;19.54;56.71;101714.91;6072489;23;20353;-80
2023/05/05 10:18:31;;;;;;;5.78;1.20;;;;;;;18.65;61.67;101734.31;6072875;23;20582;-80
2023/05/05 10:21:00;;;;;;;6.00;1.88;;;;;;;18.01;67.74;101753.22;6071444;23;20015;-78
2023/05/05 10:23:34;;;;;;;16.60;2.67;;;;;;;17.70;75.94;101699.84;6071841;23;20410;-82
2023/05/05 10:26:05;;;;;;;2.92;1.55;;;;;;;17.43;76.23;101705.50;6072407;23;20031;-84
2023/05/05 10:28:49;;;;;;;2.67;1.70;;;;;;;17.22;72.85;101720.78;6072504;23;20020;-81
2023/05/05 10:31:19;;;;;;;4.07;1.70;;;;;;;17.08;80.10;101708.06;6070145;23;20015;-82
2023/05/05 10:34:30;;;;;;;2.30;1.70;;;;;;;17.12;79.09;101716.69;6072294;23;20026;-85
2023/05/05 10:36:59;;;;;;;5.63;1.98;;;;;;;17.00;78.93;101707.66;6069482;23;20031;-90
2023/05/05 10:39:26;;;;;;;1.90;1.70;;;;;;;16.96;80.75;101704.41;6046288;23;20015;-85
2023/05/05 10:41:53;;;;;;;5.40;2.13;;;;;;;17.06;81.58;101705.09;6072572;23;20023;-84
2023/05/05 10:44:21;;;;;;;3.30;2.10;;;;;;;17.05;80.92;101711.66;6071994;23;20496;-84
2023/05/05 10:46:48;;;;;;;4.50;1.90;;;;;;;16.81;81.41;101711.69;6072298;23;20031;-83
2023/05/05 10:49:32;;;;;;;3.72;1.77;;;;;;;16.59;80.09;101717.34;6070480;23;20454;-82
2023/05/05 10:52:17;;;;;;;2.47;1.75;;;;;;;16.27;82.68;101716.16;6070526;23;20414;-84
2023/05/05 10:55:10;;;;;;;11.15;2.40;;;;;;;16.14;83.64;101711.00;6072874;23;20015;-85
2023/05/05 10:57:40;;;;;;;8.15;2.83;;;;;;;15.97;85.28;101707.94;6047214;23;20427;-86
2023/05/05 11:00:07;;;;;;;5.00;2.35;;;;;;;15.85;86.99;101716.19;6072562;23;20050;-84
2023/05/05 11:02:34;;;;;;;6.18;2.47;;;;;;;15.68;86.34;101735.28;6086674;23;20019;-84
2023/05/05 11:05:16;;;;;;;3.22;2.30;;;;;;;15.63;86.41;101743.22;6100991;23;20098;-81
2023/05/05 11:07:45;;;;;;;4.53;2.50;;;;;;;15.56;87.63;101749.66;6100757;23;20029;-83
2023/05/05 11:10:13;;;;;;;5.78;2.58;;;;;;;15.61;88.17;101735.59;6074881;23;20026;-83
2023/05/05 11:13:09;;;;;;;4.05;2.50;;;;;;;15.70;87.18;101737.53;6101432;23;20030;-83
2023/05/05 11:15:36;;;;;;;3.88;2.47;;;;;;;15.66;87.47;101745.00;6101520;23;20019;-83
2023/05/05 11:18:05;;;;;;;4.63;2.55;;;;;;;15.72;87.00;101740.50;6051741;23;20058;-83
2023/05/05 11:20:39;;;;;;;6.55;2.35;;;;;;;15.75;87.30;101742.28;6075666;23;20109;-83
2023/05/05 11:23:06;;;;;;;6.07;2.63;;;;;;;15.77;87.58;101736.47;6074744;23;20389;-83
2023/05/05 11:25:35;;;;;;;3.67;2.50;;;;;;;15.81;88.41;101729.75;6101442;23;20042;-84
2023/05/05 11:28:07;;;;;;;4.57;3.13;;;;;;;15.78;87.76;101732.59;6101166;23;20026;-84
2023/05/05 11:30:52;;;;;;;3.65;2.80;;;;;;;15.64;88.48;101733.97;6075626;23;20026;-84
2023/05/05 11:33:27;;;;;;;3.65;3.17;;;;;;;15.53;89.16;101741.72;6101089;23;20471;-83
2023/05/05 11:35:55;;;;;;;3.78;3.38;;;;;;;15.46;90.84;101750.06;6100660;23;20026;-83